Time;durP1;ratioP1;P1;durP2;ratioP2;P2;SDS_P1;SDS_P2;PMS_P1;PMS_P2;Temp;Humidity;BMP_temperature;BMP_pressure;BME280_temperature;BME280_humidity;BME280_pressure;Samples;Min_cycle;Max_cycle;Signal;HPM_P1;HPM_P2
2022/08/30 00:01:21;;;;;;;5.95;5.35;;;;;;;18.78;100.00;96769.88;5102480;28;20595;-51
2022/08/30 00:03:49;;;;;;;6.40;5.80;;;;;;;18.72;100.00;96778.69;5102877;28;20262;-51
2022/08/30 00:06:17;;;;;;;5.90;5.50;;;;;;;18.70;100.00;96767.34;5101998;28;20712;-53
2022/08/30 00:08:47;;;;;;;6.72;5.70;;;;;;;18.67;100.00;96773.06;5101944;28;20251;-53
2022/08/30 00:11:16;;;;;;;6.35;5.85;;;;;;;18.66;100.00;96774.09;5102096;28;20197;-54
2022/08/30 00:13:44;;;;;;;6.53;5.93;;;;;;;18.64;100.00;96773.44;5102010;28;21375;-53
2022/08/30 00:16:12;;;;;;;6.95;6.25;;;;;;;18.63;100.00;96769.13;5102657;28;20229;-54
2022/08/30 00:18:40;;;;;;;6.40;5.90;;;;;;;18.66;100.00;96773.28;5101637;28;20938;-51
2022/08/30 00:21:08;;;;;;;6.43;5.90;;;;;;;18.57;100.00;96764.50;5102647;28;20229;-51
2022/08/30 00:23:35;;;;;;;6.40;5.90;;;;;;;18.60;100.00;96753.41;5101953;28;20221;-53
2022/08/30 00:26:02;;;;;;;8.32;6.60;;;;;;;18.56;100.00;96760.19;5102029;28;20295;-53
2022/08/30 00:28:30;;;;;;;6.13;5.72;;;;;;;18.53;100.00;96757.88;5101974;28;20233;-51
2022/08/30 00:30:57;;;;;;;6.93;6.30;;;;;;;18.42;100.00;96756.47;5102489;28;20322;-52
2022/08/30 00:33:24;;;;;;;7.13;6.63;;;;;;;18.38;100.00;96760.59;5100894;28;20194;-50
2022/08/30 00:35:50;;;;;;;6.88;6.32;;;;;;;18.38;100.00;96757.91;5102432;28;20627;-51
2022/08/30 00:38:19;;;;;;;7.00;6.43;;;;;;;18.34;100.00;96755.78;5102062;28;20376;-51
2022/08/30 00:40:46;;;;;;;7.00;6.30;;;;;;;18.27;100.00;96758.38;5102227;28;20382;-53
2022/08/30 00:43:17;;;;;;;6.68;5.97;;;;;;;18.31;100.00;96764.19;5101564;28;20221;-52
2022/08/30 00:45:43;;;;;;;6.75;6.25;;;;;;;18.32;100.00;96761.31;5101865;28;20232;-51
2022/08/30 00:48:10;;;;;;;7.07;6.57;;;;;;;18.34;100.00;96755.78;5101340;28;20288;-55
2022/08/30 00:50:40;;;;;;;7.85;6.55;;;;;;;18.30;100.00;96751.81;5101859;28;20228;-52
2022/08/30 00:53:13;;;;;;;8.95;6.50;;;;;;;18.29;100.00;96756.34;5102352;28;20205;-52
2022/08/30 00:55:42;;;;;;;7.10;6.50;;;;;;;18.29;100.00;96750.16;5100395;28;20202;-55
2022/08/30 00:58:11;;;;;;;6.75;6.32;;;;;;;18.32;100.00;96755.13;5101177;28;20200;-54
2022/08/30 01:00:37;;;;;;;7.20;6.53;;;;;;;18.25;100.00;96759.56;5100535;28;20314;-54
2022/08/30 01:03:08;;;;;;;7.60;6.85;;;;;;;18.23;100.00;96756.28;5101990;28;20309;-54
2022/08/30 01:05:35;;;;;;;8.40;6.53;;;;;;;18.21;100.00;96753.75;5100741;28;20205;-53
2022/08/30 01:08:02;;;;;;;6.97;6.47;;;;;;;18.16;100.00;96756.19;5100337;28;20233;-53
2022/08/30 01:10:29;;;;;;;7.85;7.15;;;;;;;18.20;100.00;96751.28;5101107;28;20210;-57
2022/08/30 01:12:57;;;;;;;7.20;6.55;;;;;;;18.25;100.00;96751.53;5101289;28;20202;-53
2022/08/30 01:15:24;;;;;;;7.80;7.10;;;;;;;18.21;100.00;96750.28;5100199;28;20212;-56
2022/08/30 01:17:52;;;;;;;7.55;6.75;;;;;;;18.15;100.00;96753.69;5100633;28;20202;-54
2022/08/30 01:20:23;;;;;;;7.20;6.70;;;;;;;18.08;100.00;96758.13;5101136;28;20300;-54
2022/08/30 01:23:05;;;;;;;7.70;7.07;;;;;;;18.02;100.00;96765.06;5101789;28;20205;-50
2022/08/30 01:25:34;;;;;;;7.47;6.78;;;;;;;18.00;100.00;96767.09;5101152;28;20630;-52
2022/08/30 01:28:04;;;;;;;8.65;7.07;;;;;;;18.04;100.00;96765.69;5100871;28;20288;-52
2022/08/30 01:30:32;;;;;;;7.78;7.05;;;;;;;17.99;100.00;96761.94;5100899;28;20228;-52
2022/08/30 01:33:01;;;;;;;7.47;6.78;;;;;;;17.95;100.00;96757.97;5101095;28;20213;-52
2022/08/30 01:35:30;;;;;;;7.93;7.13;;;;;;;18.01;100.00;96765.25;5102502;28;20229;-52
2022/08/30 01:37:56;;;;;;;8.07;7.15;;;;;;;17.98;100.00;96760.28;5101228;28;20328;-51
2022/08/30 01:40:24;;;;;;;7.50;6.90;;;;;;;17.94;100.00;96778.53;5102719;28;20256;-50
2022/08/30 01:42:51;;;;;;;7.30;6.63;;;;;;;17.95;100.00;96774.03;5104916;28;20729;-51
2022/08/30 01:45:18;;;;;;;7.80;6.95;;;;;;;17.91;100.00;96768.22;5119865;28;20192;-51
2022/08/30 01:47:44;;;;;;;7.95;7.22;;;;;;;17.89;100.00;96772.91;5124194;28;20220;-52
2022/08/30 01:50:11;;;;;;;10.20;6.85;;;;;;;17.85;100.00;96769.78;5129829;28;20201;-52
2022/08/30 01:52:38;;;;;;;8.05;7.30;;;;;;;17.83;100.00;96774.50;5126107;28;20189;-51
2022/08/30 01:55:07;;;;;;;7.70;6.90;;;;;;;17.84;100.00;96765.47;5121717;28;20229;-51
2022/08/30 01:57:35;;;;;;;7.95;7.25;;;;;;;17.84;100.00;96769.97;5109656;28;20197;-56
2022/08/30 02:00:02;;;;;;;8.02;7.15;;;;;;;17.82;100.00;96770.16;5111186;28;20204;-53
2022/08/30 02:02:30;;;;;;;7.50;6.90;;;;;;;17.78;100.00;96776.88;5115635;28;20202;-53
2022/08/30 02:04:57;;;;;;;7.82;7.22;;;;;;;17.79;100.00;96770.53;5118093;28;20202;-54
2022/08/30 02:07:24;;;;;;;8.30;7.50;;;;;;;17.74;100.00;96762.22;5123213;28;20208;-58
2022/08/30 02:09:51;;;;;;;7.57;6.97;;;;;;;17.70;100.00;96771.63;5122448;28;20205;-60
2022/08/30 02:12:18;;;;;;;8.40;7.22;;;;;;;17.68;100.00;96770.13;5121433;28;20201;-52
2022/08/30 02:14:46;;;;;;;7.90;7.20;;;;;;;17.74;100.00;96764.06;5121106;28;20200;-51
2022/08/30 02:17:13;;;;;;;7.88;7.18;;;;;;;17.74;100.00;96764.91;5126077;28;20182;-53
2022/08/30 02:19:40;;;;;;;8.15;7.43;;;;;;;17.75;100.00;96753.16;5123645;28;20185;-55
2022/08/30 02:22:07;;;;;;;8.48;7.63;;;;;;;17.64;100.00;96758.97;5130515;28;20198;-59
2022/08/30 02:24:34;;;;;;;8.52;7.70;;;;;;;17.63;100.00;96765.38;5126883;28;20200;-51
2022/08/30 02:27:01;;;;;;;8.10;7.40;;;;;;;17.59;100.00;96758.72;5104130;28;20220;-52
2022/08/30 02:29:28;;;;;;;7.80;7.20;;;;;;;17.58;100.00;96762.41;5104365;28;20201;-51
2022/08/30 02:31:56;;;;;;;8.70;7.20;;;;;;;17.60;100.00;96755.03;5104646;28;20296;-51
2022/08/30 02:34:23;;;;;;;7.97;7.10;;;;;;;17.60;100.00;96760.38;5103947;28;20197;-51
2022/08/30 02:36:49;;;;;;;8.15;7.43;;;;;;;17.58;100.00;96751.69;5104623;28;20217;-51
2022/08/30 02:39:16;;;;;;;8.02;7.22;;;;;;;17.58;100.00;96757.06;5102930;28;20720;-52
2022/08/30 02:41:43;;;;;;;8.05;7.40;;;;;;;17.55;100.00;96757.38;5103675;28;20209;-51
2022/08/30 02:44:11;;;;;;;8.10;7.40;;;;;;;17.52;100.00;96752.41;5103600;28;20637;-52
2022/08/30 02:46:39;;;;;;;8.05;7.35;;;;;;;17.55;100.00;96761.91;5104397;28;20233;-50
2022/08/30 02:49:08;;;;;;;8.63;7.32;;;;;;;17.51;100.00;96756.09;5103797;28;20289;-51
2022/08/30 02:51:35;;;;;;;8.30;7.60;;;;;;;17.46;100.00;96752.31;5103883;28;20198;-50
2022/08/30 02:54:02;;;;;;;8.90;7.78;;;;;;;17.42;100.00;96742.00;5102751;28;20540;-50
2022/08/30 02:56:28;;;;;;;8.55;7.85;;;;;;;17.45;100.00;96739.94;5103033;28;20225;-52
2022/08/30 02:58:55;;;;;;;8.32;7.63;;;;;;;17.41;100.00;96739.50;5103498;28;20240;-53
2022/08/30 03:01:22;;;;;;;8.45;7.63;;;;;;;17.45;100.00;96743.47;5103605;28;20674;-51
2022/08/30 03:03:49;;;;;;;8.50;7.70;;;;;;;17.42;100.00;96742.00;5103441;28;20311;-51
2022/08/30 03:06:18;;;;;;;8.00;7.30;;;;;;;17.38;100.00;96735.34;5103696;28;20205;-51
2022/08/30 03:08:45;;;;;;;8.32;7.63;;;;;;;17.38;100.00;96734.50;5102168;28;20226;-51
2022/08/30 03:11:12;;;;;;;8.55;7.53;;;;;;;17.37;100.00;96732.84;5102875;28;20244;-52
2022/08/30 03:13:39;;;;;;;8.40;7.80;;;;;;;17.35;100.00;96729.53;5103464;28;20198;-51
2022/08/30 03:16:06;;;;;;;8.13;7.30;;;;;;;17.30;100.00;96737.25;5103653;28;20300;-52
2022/08/30 03:18:33;;;;;;;8.00;7.30;;;;;;;17.39;100.00;96731.63;5102901;28;20203;-52
2022/08/30 03:21:00;;;;;;;8.25;7.65;;;;;;;17.27;100.00;96733.13;5103388;28;20201;-51
2022/08/30 03:23:28;;;;;;;9.15;8.18;;;;;;;17.24;100.00;96733.50;5102871;28;20317;-52
2022/08/30 03:25:56;;;;;;;8.63;7.65;;;;;;;17.25;100.00;96724.44;5103765;28;20240;-50
2022/08/30 03:28:23;;;;;;;8.90;8.18;;;;;;;17.21;100.00;96719.66;5101628;28;20212;-51
2022/08/30 03:30:50;;;;;;;9.13;8.32;;;;;;;17.24;100.00;96725.47;5102317;28;20201;-51
2022/08/30 03:33:16;;;;;;;8.27;7.65;;;;;;;17.24;100.00;96721.97;5102528;28;20328;-50
2022/08/30 03:35:45;;;;;;;9.43;8.13;;;;;;;17.27;100.00;96716.25;5103829;28;20292;-52
2022/08/30 03:38:11;;;;;;;8.45;7.65;;;;;;;17.26;100.00;96725.28;5102181;28;20323;-52
2022/08/30 03:40:39;;;;;;;8.77;7.97;;;;;;;17.28;100.00;96724.09;5102720;28;20626;-50
2022/08/30 03:43:06;;;;;;;8.60;7.80;;;;;;;17.29;100.00;96725.72;5102354;28;20638;-51
2022/08/30 03:45:33;;;;;;;9.27;7.78;;;;;;;17.25;100.00;96727.09;5102497;28;20229;-51
2022/08/30 03:48:01;;;;;;;8.10;7.45;;;;;;;17.23;100.00;96721.13;5103143;28;20197;-51
2022/08/30 03:50:29;;;;;;;7.80;7.10;;;;;;;17.22;100.00;96718.63;5104211;28;20246;-51
2022/08/30 03:52:56;;;;;;;8.80;8.10;;;;;;;17.15;100.00;96729.22;5102651;28;20202;-51
2022/08/30 03:55:23;;;;;;;8.32;7.70;;;;;;;17.15;100.00;96729.22;5102070;28;20292;-51
2022/08/30 03:57:51;;;;;;;8.45;7.30;;;;;;;17.18;100.00;96728.84;5102961;28;20233;-53
2022/08/30 04:00:17;;;;;;;8.68;7.90;;;;;;;17.14;100.00;96738.25;5102675;28;20235;-50
2022/08/30 04:02:44;;;;;;;8.57;7.88;;;;;;;17.14;100.00;96740.09;5102889;28;20204;-52
2022/08/30 04:05:12;;;;;;;8.80;8.05;;;;;;;17.21;100.00;96735.69;5101529;28;20225;-51
2022/08/30 04:07:39;;;;;;;8.77;8.07;;;;;;;17.18;100.00;96736.88;5101271;28;20237;-51
2022/08/30 04:10:07;;;;;;;8.05;7.43;;;;;;;17.19;100.00;96740.38;5101508;28;20289;-50
2022/08/30 04:12:34;;;;;;;8.95;8.10;;;;;;;17.14;100.00;96748.13;5101494;28;20289;-52
2022/08/30 04:15:02;;;;;;;8.80;8.05;;;;;;;17.14;100.00;96750.78;5101212;28;20212;-52
2022/08/30 04:17:29;;;;;;;9.70;8.73;;;;;;;17.15;100.00;96744.41;5102052;28;20301;-50
2022/08/30 04:19:56;;;;;;;9.48;8.68;;;;;;;17.17;100.00;96742.41;5102286;28;20586;-51
2022/08/30 04:22:22;;;;;;;9.30;8.50;;;;;;;17.14;100.00;96737.44;5102448;28;20290;-51
2022/08/30 04:24:49;;;;;;;8.43;7.82;;;;;;;17.16;100.00;96736.22;5101370;28;20811;-51
2022/08/30 04:27:19;;;;;;;9.00;8.30;;;;;;;17.18;100.00;96738.72;5102026;28;20991;-52
2022/08/30 04:29:45;;;;;;;10.27;8.70;;;;;;;17.13;100.00;96736.59;5100247;28;20686;-51
2022/08/30 04:32:14;;;;;;;9.18;8.25;;;;;;;17.12;100.00;96734.09;5101698;28;20326;-51
2022/08/30 04:34:40;;;;;;;9.30;8.57;;;;;;;17.14;100.00;96732.91;5102107;28;20313;-53
2022/08/30 04:37:07;;;;;;;9.65;8.75;;;;;;;17.15;100.00;96739.06;5101218;28;20633;-51
2022/08/30 04:39:34;;;;;;;9.00;8.30;;;;;;;17.17;100.00;96747.75;5101221;28;20336;-51
2022/08/30 04:42:02;;;;;;;9.40;8.60;;;;;;;17.18;100.00;96754.75;5102259;28;20628;-53
2022/08/30 04:44:28;;;;;;;9.05;8.20;;;;;;;17.18;100.00;96760.91;5100219;28;20236;-52
2022/08/30 04:46:55;;;;;;;8.52;7.72;;;;;;;17.21;100.00;96765.09;5100853;28;20595;-52
2022/08/30 04:49:23;;;;;;;9.73;8.93;;;;;;;17.15;100.00;96765.78;5101507;28;20287;-51
2022/08/30 04:51:50;;;;;;;9.93;9.10;;;;;;;17.08;100.00;96771.03;5101874;28;20233;-52
2022/08/30 04:54:17;;;;;;;9.55;8.75;;;;;;;17.12;100.00;96777.69;5099550;28;20227;-54
2022/08/30 04:56:44;;;;;;;9.88;8.93;;;;;;;17.14;100.00;96780.19;5100742;28;20574;-53
2022/08/30 04:59:10;;;;;;;10.18;9.40;;;;;;;17.16;100.00;96784.34;5098544;28;20210;-50
2022/08/30 05:01:37;;;;;;;10.23;9.27;;;;;;;17.14;100.00;96775.69;5099531;28;20300;-51
2022/08/30 05:04:05;;;;;;;11.95;9.77;;;;;;;17.13;100.00;96779.34;5100315;28;20310;-51
2022/08/30 05:06:34;;;;;;;10.85;9.35;;;;;;;17.23;100.00;96789.78;5100646;28;20266;-51
2022/08/30 05:09:00;;;;;;;9.82;9.00;;;;;;;17.26;100.00;96792.94;5099472;28;20296;-51
2022/08/30 05:11:28;;;;;;;9.55;8.75;;;;;;;17.29;100.00;96810.44;5100906;28;20301;-51
2022/08/30 05:13:55;;;;;;;10.15;9.25;;;;;;;17.31;100.00;96808.44;5101299;28;20205;-51
2022/08/30 05:16:22;;;;;;;9.50;8.70;;;;;;;17.34;100.00;96808.91;5101348;28;20333;-52
2022/08/30 05:18:50;;;;;;;9.75;8.85;;;;;;;17.39;100.00;96811.84;5100970;28;20285;-53
2022/08/30 05:21:20;;;;;;;9.82;8.82;;;;;;;17.42;100.00;96813.34;5101408;28;20199;-52
2022/08/30 05:23:49;;;;;;;9.65;8.70;;;;;;;17.52;100.00;96810.41;5102058;28;20398;-51
2022/08/30 05:26:19;;;;;;;9.73;8.98;;;;;;;17.58;100.00;96823.91;5100382;28;20196;-51
2022/08/30 05:28:46;;;;;;;11.23;9.85;;;;;;;17.59;100.00;96820.22;5099892;28;20227;-51
2022/08/30 05:31:14;;;;;;;10.20;9.30;;;;;;;17.60;100.00;96823.72;5100513;28;20243;-50
2022/08/30 05:33:41;;;;;;;10.27;9.27;;;;;;;17.64;100.00;96817.00;5100286;28;21408;-51
2022/08/30 05:36:09;;;;;;;10.10;9.10;;;;;;;17.71;100.00;96824.09;5100025;28;20229;-51
2022/08/30 05:38:36;;;;;;;10.02;9.00;;;;;;;17.74;100.00;96818.41;5100241;28;21443;-50
2022/08/30 05:41:04;;;;;;;10.43;9.45;;;;;;;17.80;100.00;96816.81;5099502;28;20214;-51
2022/08/30 05:43:31;;;;;;;9.98;8.98;;;;;;;17.84;100.00;96821.63;5099355;28;20303;-50
2022/08/30 05:46:01;;;;;;;10.02;9.02;;;;;;;17.89;100.00;96813.03;5099761;28;20289;-51
2022/08/30 05:48:28;;;;;;;10.68;9.63;;;;;;;18.12;100.00;96813.78;5099901;28;20685;-52
2022/08/30 05:51:06;;;;;;;10.35;9.45;;;;;;;18.26;100.00;96809.44;5099975;28;20673;-51
2022/08/30 05:53:33;;;;;;;10.45;8.90;;;;;;;18.40;100.00;96804.06;5101173;28;20193;-52
2022/08/30 05:56:01;;;;;;;10.20;9.23;;;;;;;18.67;100.00;96805.22;5104087;28;20288;-52
2022/08/30 05:58:29;;;;;;;10.18;9.13;;;;;;;18.99;100.00;96806.56;5104093;28;20235;-52
2022/08/30 06:00:56;;;;;;;10.57;9.52;;;;;;;19.06;100.00;96803.97;5103635;28;20225;-51
2022/08/30 06:03:23;;;;;;;9.95;9.05;;;;;;;19.01;100.00;96803.72;5104346;28;20292;-50
2022/08/30 06:05:49;;;;;;;11.77;9.48;;;;;;;19.81;100.00;96802.34;5104566;28;20223;-50
2022/08/30 06:08:20;;;;;;;9.88;8.98;;;;;;;20.61;100.00;96806.28;5104699;28;20263;-51
2022/08/30 06:10:46;;;;;;;10.18;9.25;;;;;;;21.43;93.54;96806.88;5103573;28;20596;-51
2022/08/30 06:13:14;;;;;;;10.10;8.98;;;;;;;21.98;86.86;96800.22;5104728;28;20221;-51
2022/08/30 06:15:43;;;;;;;10.63;9.10;;;;;;;22.31;83.18;96798.28;5104307;28;20280;-52
2022/08/30 06:18:11;;;;;;;8.77;7.97;;;;;;;22.69;81.78;96806.44;5107252;28;20230;-51
2022/08/30 06:20:40;;;;;;;10.18;9.18;;;;;;;22.94;78.90;96803.81;5122334;28;20189;-51
2022/08/30 06:23:07;;;;;;;9.73;8.15;;;;;;;22.89;79.56;96802.78;5123816;28;20196;-52
2022/08/30 06:25:35;;;;;;;9.10;8.20;;;;;;;22.97;78.57;96795.28;5123005;28;20256;-51
2022/08/30 06:28:03;;;;;;;8.63;7.82;;;;;;;22.99;79.10;96800.47;5110494;28;20220;-51
2022/08/30 06:30:29;;;;;;;9.20;8.35;;;;;;;22.86;79.11;96808.63;5103616;28;20621;-51
2022/08/30 06:32:58;;;;;;;8.18;7.38;;;;;;;22.92;81.62;96805.09;5104337;28;20885;-52
2022/08/30 06:35:25;;;;;;;8.85;8.05;;;;;;;23.12;78.32;96801.22;5104102;28;20208;-52
2022/08/30 06:37:52;;;;;;;9.25;8.27;;;;;;;23.02;78.91;96798.19;5103549;28;20264;-52
2022/08/30 06:40:20;;;;;;;9.30;8.35;;;;;;;23.10;79.18;96797.06;5105084;27;20200;-51
2022/08/30 06:42:50;;;;;;;11.80;8.00;;;;;;;23.05;79.84;96799.59;5104138;28;20206;-52
2022/08/30 06:45:17;;;;;;;8.90;8.05;;;;;;;23.22;78.24;96800.72;5104210;28;20785;-52
2022/08/30 06:47:44;;;;;;;11.50;8.30;;;;;;;23.40;74.59;96800.81;5103297;28;20283;-51
2022/08/30 06:50:13;;;;;;;9.48;8.55;;;;;;;23.70;75.28;96798.31;5103833;28;20228;-52
2022/08/30 06:52:41;;;;;;;8.93;7.28;;;;;;;23.92;74.64;96791.44;5107334;28;20265;-52
2022/08/30 06:55:08;;;;;;;8.65;7.85;;;;;;;24.21;73.65;96787.22;5108118;28;20205;-51
2022/08/30 06:57:35;;;;;;;10.45;8.00;;;;;;;24.29;73.76;96776.13;5106715;28;20197;-52
2022/08/30 07:00:02;;;;;;;9.30;8.43;;;;;;;24.49;72.30;96782.09;5105779;28;20220;-51
2022/08/30 07:02:29;;;;;;;8.55;7.88;;;;;;;24.56;72.11;96787.41;5106037;28;20213;-51
2022/08/30 07:04:55;;;;;;;9.02;8.25;;;;;;;24.56;70.98;96788.25;5103203;28;20752;-51
2022/08/30 07:07:23;;;;;;;8.75;7.95;;;;;;;24.64;69.80;96787.13;5102634;28;20292;-51
2022/08/30 07:09:50;;;;;;;9.60;8.35;;;;;;;24.58;69.36;96774.50;5103300;28;20255;-51
2022/08/30 07:12:17;;;;;;;8.82;7.82;;;;;;;24.80;70.22;96780.25;5103401;28;20212;-50
2022/08/30 07:14:43;;;;;;;11.25;8.55;;;;;;;24.72;70.15;96787.63;5103451;28;20201;-52
2022/08/30 07:19:50;;;;;;;8.93;8.07;;;;;;;24.73;69.63;96773.03;5101090;28;20193;-53
2022/08/30 07:22:17;;;;;;;10.02;8.18;;;;;;;24.89;69.63;96781.63;5103228;28;20658;-51
2022/08/30 07:24:45;;;;;;;8.85;8.00;;;;;;;24.98;68.89;96772.94;5103239;28;21513;-50
2022/08/30 07:27:12;;;;;;;8.60;7.60;;;;;;;24.93;69.90;96771.97;5103009;28;20292;-49
2022/08/30 07:29:40;;;;;;;9.07;8.18;;;;;;;25.00;69.69;96778.13;5102849;28;20729;-51
2022/08/30 07:32:07;;;;;;;11.88;8.32;;;;;;;25.16;69.35;96774.75;5102883;28;20292;-50
2022/08/30 07:34:34;;;;;;;9.55;8.65;;;;;;;25.02;67.14;96770.59;5103432;28;20202;-52
2022/08/30 07:37:00;;;;;;;8.35;7.55;;;;;;;25.12;67.10;96765.44;5102622;28;20194;-52
2022/08/30 07:39:27;;;;;;;8.38;7.50;;;;;;;25.01;68.07;96771.66;5103643;28;20315;-51
2022/08/30 07:41:55;;;;;;;8.40;7.70;;;;;;;25.12;67.15;96762.72;5102465;28;20201;-52
2022/08/30 07:44:22;;;;;;;8.68;7.88;;;;;;;25.15;67.39;96770.41;5102789;28;20312;-50
2022/08/30 07:46:48;;;;;;;8.35;7.53;;;;;;;25.20;66.61;96760.53;5102936;28;20208;-51
2022/08/30 07:49:15;;;;;;;8.38;7.55;;;;;;;25.22;67.49;96769.22;5102573;28;20232;-51
2022/08/30 07:51:42;;;;;;;10.85;7.78;;;;;;;25.39;65.34;96766.69;5102624;28;20210;-52
2022/08/30 07:54:09;;;;;;;8.38;6.78;;;;;;;25.31;66.59;96767.03;5102514;28;20198;-51
2022/08/30 07:56:37;;;;;;;9.65;6.93;;;;;;;25.29;65.65;96765.63;5102366;28;20209;-51
2022/08/30 07:59:05;;;;;;;6.90;6.28;;;;;;;25.46;65.75;96772.00;5101954;28;20233;-51
2022/08/30 08:01:32;;;;;;;6.90;6.20;;;;;;;25.53;64.80;96770.03;5102800;28;20650;-50
2022/08/30 08:03:59;;;;;;;7.40;6.70;;;;;;;25.53;66.35;96768.16;5101707;28;20211;-51
2022/08/30 08:06:26;;;;;;;8.27;7.47;;;;;;;25.56;66.75;96767.69;5103087;28;20289;-52
2022/08/30 08:08:55;;;;;;;7.53;6.82;;;;;;;25.58;68.24;96770.16;5101732;28;20213;-52
2022/08/30 08:11:24;;;;;;;7.35;6.65;;;;;;;25.58;64.57;96765.56;5102386;28;20204;-51
2022/08/30 08:13:51;;;;;;;6.90;6.38;;;;;;;25.41;65.15;96775.41;5101843;28;20212;-51
2022/08/30 08:16:20;;;;;;;13.07;6.97;;;;;;;25.41;65.30;96775.41;5102875;28;20388;-50
2022/08/30 08:18:47;;;;;;;9.43;7.07;;;;;;;25.46;64.79;96767.41;5100598;28;20637;-51
2022/08/30 08:21:14;;;;;;;7.10;6.38;;;;;;;25.74;66.47;96773.00;5102202;28;20302;-50
2022/08/30 08:23:41;;;;;;;8.05;7.25;;;;;;;25.52;64.48;96769.22;5103202;28;20823;-50
2022/08/30 08:26:07;;;;;;;7.30;6.65;;;;;;;25.62;65.98;96772.16;5101506;28;20351;-52
2022/08/30 08:28:34;;;;;;;12.85;8.48;;;;;;;25.37;66.75;96776.09;5101523;28;20296;-53
2022/08/30 08:31:01;;;;;;;9.25;8.23;;;;;;;25.38;67.76;96772.34;5102555;28;20591;-50
2022/08/30 08:33:29;;;;;;;9.13;8.32;;;;;;;25.51;68.63;96770.25;5101021;28;20232;-52
2022/08/30 08:35:56;;;;;;;8.45;7.65;;;;;;;25.67;69.37;96774.19;5101351;28;20293;-51
2022/08/30 08:38:23;;;;;;;8.25;7.63;;;;;;;25.74;69.24;96767.59;5101677;28;20312;-51
2022/08/30 08:40:55;;;;;;;12.45;8.40;;;;;;;25.62;66.79;96769.44;5101461;28;20239;-51
2022/08/30 08:43:25;;;;;;;8.25;7.65;;;;;;;25.46;67.68;96762.00;5102013;28;20289;-50
2022/08/30 08:45:56;;;;;;;8.70;7.90;;;;;;;25.57;67.86;96753.09;5101225;28;20233;-51
2022/08/30 08:48:30;;;;;;;8.70;7.53;;;;;;;25.67;67.61;96758.75;5101689;28;20288;-52
2022/08/30 08:53:45;;;;;;;13.48;8.07;;;;;;;25.42;67.73;96760.81;5101754;28;20620;-51
2022/08/30 08:56:13;;;;;;;8.73;7.53;;;;;;;25.22;68.04;96761.13;5101048;28;20194;-51
2022/08/30 08:58:43;;;;;;;12.90;9.30;;;;;;;25.08;68.54;96765.06;5101124;28;20213;-51
2022/08/30 09:01:11;;;;;;;8.93;7.97;;;;;;;24.74;71.67;96766.59;5101373;28;20233;-50
2022/08/30 09:03:39;;;;;;;9.95;7.97;;;;;;;24.71;71.05;96764.34;5100599;28;20567;-50
2022/08/30 09:06:25;;;;;;;9.27;8.30;;;;;;;24.90;70.61;96764.34;5101535;28;20316;-50
2022/08/30 09:08:51;;;;;;;9.55;8.05;;;;;;;25.21;71.54;96770.31;5101217;28;20258;-53
2022/08/30 09:11:22;;;;;;;21.35;9.40;;;;;;;25.51;68.84;96759.44;5101256;28;20197;-51
2022/08/30 09:13:49;;;;;;;11.50;7.97;;;;;;;25.72;68.73;96769.69;5101114;28;20283;-50
2022/08/30 09:16:46;;;;;;;8.15;7.35;;;;;;;26.07;69.27;96766.16;5101405;28;20193;-52
2022/08/30 09:19:28;;;;;;;9.07;8.27;;;;;;;26.10;66.01;96768.41;5100480;28;20229;-51
2022/08/30 09:21:57;;;;;;;8.57;7.88;;;;;;;26.32;66.88;96766.75;5100848;28;20288;-50
2022/08/30 09:24:24;;;;;;;7.82;7.10;;;;;;;26.48;65.62;96765.16;5101951;28;20287;-51
2022/08/30 09:26:51;;;;;;;8.77;7.45;;;;;;;26.52;66.56;96761.75;5100512;28;20205;-51
2022/08/30 09:29:18;;;;;;;8.30;7.35;;;;;;;26.61;63.27;96762.16;5100586;28;20300;-50
2022/08/30 09:31:49;;;;;;;10.50;8.70;;;;;;;26.59;64.09;96759.72;5101123;28;20292;-51
2022/08/30 09:34:19;;;;;;;8.57;7.78;;;;;;;26.88;65.40;96754.31;5101108;28;20839;-51
2022/08/30 09:36:48;;;;;;;7.68;7.07;;;;;;;27.01;64.10;96748.59;5101519;28;20305;-52
2022/08/30 09:39:18;;;;;;;8.85;8.02;;;;;;;27.17;64.44;96745.88;5100454;28;20233;-50
2022/08/30 09:41:48;;;;;;;7.78;7.07;;;;;;;26.90;63.41;96742.16;5101001;28;20190;-51
2022/08/30 09:44:17;;;;;;;9.40;7.80;;;;;;;26.63;64.21;96743.78;5101690;28;20637;-50
2022/08/30 09:46:47;;;;;;;8.23;7.53;;;;;;;26.80;63.33;96739.22;5100643;28;20209;-50
2022/08/30 09:49:35;;;;;;;7.45;6.78;;;;;;;27.25;64.69;96739.22;5101341;28;20202;-51
2022/08/30 09:52:13;;;;;;;8.57;7.82;;;;;;;27.47;61.31;96742.91;5102034;28;20224;-50
2022/08/30 09:54:49;;;;;;;13.27;8.00;;;;;;;27.34;61.64;96748.66;5101451;28;20581;-51
2022/08/30 09:57:23;;;;;;;11.93;7.93;;;;;;;27.29;60.30;96745.81;5101942;28;20200;-51
2022/08/30 09:59:54;;;;;;;7.85;7.18;;;;;;;27.10;60.79;96749.84;5101555;28;20217;-51
2022/08/30 10:02:34;;;;;;;9.40;7.22;;;;;;;27.01;62.65;96743.16;5101572;28;20280;-51
2022/08/30 10:05:08;;;;;;;8.65;7.72;;;;;;;26.63;62.78;96736.47;5101466;28;20267;-52
2022/08/30 10:07:42;;;;;;;7.72;7.03;;;;;;;26.77;63.09;96737.00;5102289;28;20210;-54
2022/08/30 10:10:12;;;;;;;8.50;7.80;;;;;;;26.83;60.99;96735.22;5102221;28;20221;-51
2022/08/30 10:12:44;;;;;;;7.22;6.55;;;;;;;27.05;62.85;96733.47;5104519;28;20286;-52
2022/08/30 10:15:16;;;;;;;7.07;6.47;;;;;;;27.39;62.48;96726.97;5104576;28;20217;-51
2022/08/30 10:17:48;;;;;;;8.50;7.70;;;;;;;27.44;60.62;96715.38;5120908;28;20190;-51
2022/08/30 10:20:22;;;;;;;8.85;7.00;;;;;;;27.38;60.31;96728.06;5130546;28;20185;-51
2022/08/30 10:22:52;;;;;;;7.35;6.70;;;;;;;27.34;60.61;96721.47;5125997;28;20182;-51
2022/08/30 10:25:23;;;;;;;8.43;7.63;;;;;;;27.00;60.61;96719.78;5131327;28;20209;-51
2022/08/30 10:27:53;;;;;;;7.50;6.90;;;;;;;26.99;63.56;96713.56;5123340;28;20193;-51
2022/08/30 10:30:21;;;;;;;7.95;7.13;;;;;;;26.90;62.63;96716.91;5122709;28;20186;-50
2022/08/30 10:32:51;;;;;;;7.05;6.43;;;;;;;26.94;61.79;96715.34;5123688;28;20208;-51
2022/08/30 10:35:22;;;;;;;7.60;7.00;;;;;;;27.02;63.38;96713.06;5128563;28;20182;-51
2022/08/30 10:37:51;;;;;;;7.28;6.68;;;;;;;26.97;63.15;96714.84;5125040;28;20236;-52
2022/08/30 10:43:15;;;;;;;7.22;6.57;;;;;;;26.83;63.15;96711.63;5118225;28;20258;-51
2022/08/30 10:45:45;;;;;;;7.72;7.05;;;;;;;26.92;62.40;96706.63;5110785;28;20263;-53
2022/08/30 10:48:16;;;;;;;7.53;6.82;;;;;;;26.87;61.66;96710.06;5104787;28;20205;-51
2022/08/30 10:50:46;;;;;;;7.35;6.65;;;;;;;26.78;60.08;96702.53;5104386;28;20199;-51
2022/08/30 10:53:16;;;;;;;7.20;6.70;;;;;;;26.83;60.94;96700.78;5104006;28;20259;-52
2022/08/30 10:55:49;;;;;;;7.50;6.85;;;;;;;26.80;62.28;96703.94;5102920;28;20298;-51
2022/08/30 10:58:16;;;;;;;7.45;6.75;;;;;;;26.78;63.22;96705.25;5103992;28;20637;-51
2022/08/30 11:00:54;;;;;;;8.07;7.38;;;;;;;26.71;64.71;96699.97;5104038;28;20194;-51
2022/08/30 11:03:54;;;;;;;8.35;7.13;;;;;;;26.70;64.86;96698.34;5103837;28;20721;-51
2022/08/30 11:06:25;;;;;;;7.50;6.80;;;;;;;26.75;65.68;96695.69;5078689;28;20309;-51
2022/08/30 11:09:18;;;;;;;9.20;6.70;;;;;;;26.73;64.70;96695.94;5102721;28;20193;-52
2022/08/30 11:11:58;;;;;;;7.68;6.85;;;;;;;26.78;64.30;96700.66;5101951;28;20275;-51
2022/08/30 11:14:25;;;;;;;7.18;6.68;;;;;;;26.72;63.06;96691.59;5103565;28;20285;-51
2022/08/30 11:16:53;;;;;;;7.60;6.75;;;;;;;26.77;64.16;96688.16;5103325;28;20232;-51
2022/08/30 11:19:23;;;;;;;11.00;7.03;;;;;;;26.84;65.48;96690.75;5103712;28;20197;-51
2022/08/30 11:21:53;;;;;;;6.88;6.30;;;;;;;26.92;64.89;96684.94;5103225;28;20205;-51
2022/08/30 11:24:21;;;;;;;8.00;6.68;;;;;;;26.97;63.40;96682.28;5104221;28;20280;-53
2022/08/30 11:27:01;;;;;;;7.40;6.70;;;;;;;26.91;62.25;96684.09;5103143;28;20249;-52
2022/08/30 11:29:31;;;;;;;6.82;6.20;;;;;;;27.04;63.86;96680.22;5103020;28;20633;-51
2022/08/30 11:31:59;;;;;;;6.43;5.93;;;;;;;27.16;63.98;96676.38;5104043;28;20198;-51
2022/08/30 11:34:54;;;;;;;7.10;6.40;;;;;;;27.19;59.81;96681.31;5103068;28;20296;-53
2022/08/30 11:37:37;;;;;;;6.95;6.40;;;;;;;27.41;62.91;96678.69;5101509;28;20677;-50
2022/08/30 11:40:07;;;;;;;6.82;6.28;;;;;;;27.57;61.07;96680.56;5103238;28;20309;-52
2022/08/30 11:42:40;;;;;;;7.32;6.63;;;;;;;27.70;59.83;96672.06;5103374;28;20606;-52